Jebel Ali — 9HA2984 — position and weather

sailwx.info

Track history (hours):
 
Tides and Currents Weather Stations Pressure Air Temp Water Temp Dewpoint Dewpoint Depression Visibility Wind Speed Wind Dir Waves Ship Positions

Jebel Ali

Last reported at 2018-Aug-16 22:06 UTC. Time now 2018-Aug-19 22:41 UTC.
Position N 23°21' E 117°32'.

Length 366 m; draft 12.9 m.

Type: Ship (hazmat cat A). MMSI: 229007000.

Date/timePositionNaut miles runAvg speedWind from/ knotsBaromVisibWave heightAir tempDewpointWater temp
2018-Aug-16 22:06N 23°21' E 117°32'112.4
2018-Aug-16 22:00N 23°22' E 117°33'612.4
2018-Aug-16 21:30N 23°26' E 117°38'612.4
2018-Aug-16 21:00N 23°30' E 117°43'611.9
2018-Aug-16 20:30N 23°34' E 117°48'611.8
2018-Aug-16 19:58N 23°38' E 117°53'612.0
2018-Aug-16 19:30N 23°41' E 117°58'611.4
2018-Aug-16 18:58N 23°44' E 118°04'611.6
2018-Aug-16 18:25N 23°48' E 118°09'511.2
2018-Aug-16 18:00N 23°50' E 118°14'611.3
2018-Aug-16 17:28N 23°53' E 118°20'511.1
2018-Aug-16 16:59N 23°56' E 118°24'910.9
2018-Aug-16 16:10N 24°02' E 118°32'610.7
2018-Aug-16 15:37N 24°06' E 118°37'110.3
2018-Aug-16 15:30N 24°06' E 118°38'610.6
2018-Aug-16 14:59N 24°10' E 118°43'4110.8
2018-Aug-16 11:13N 24°35' E 119°18'311.0
2018-Aug-16 10:56N 24°37' E 119°21'710.9
2018-Aug-16 10:18N 24°41' E 119°27'  
2018-Aug-13 23:14N 30°34' E 122°10'715.0
2018-Aug-13 22:45N 30°37' E 122°03'2 9.3
2018-Aug-13 22:30N 30°39' E 122°01'0 0.6
2018-Aug-13 21:55N 30°39' E 122°01'0 0.0
2018-Aug-13 21:28N 30°39' E 122°01'0 0.0
2018-Aug-13 20:58N 30°39' E 122°01'0 0.0
2018-Aug-13 20:28N 30°39' E 122°01'0 0.0
2018-Aug-13 19:58N 30°39' E 122°01'0 0.0
2018-Aug-13 19:28N 30°39' E 122°01'0 0.0
2018-Aug-13 18:52N 30°39' E 122°01'0 0.0
2018-Aug-13 18:28N 30°39' E 122°01'0 0.0
2018-Aug-13 17:58N 30°39' E 122°01'0 0.0
2018-Aug-13 17:28N 30°39' E 122°01'0 0.0
2018-Aug-13 16:58N 30°39' E 122°01'0 0.0
2018-Aug-13 16:28N 30°39' E 122°01'0 0.0
2018-Aug-13 15:58N 30°39' E 122°01'0 0.0
2018-Aug-13 15:25N 30°39' E 122°01'0 0.0
2018-Aug-13 14:55N 30°39' E 122°01'0 0.0
2018-Aug-13 14:25N 30°39' E 122°01'0 0.0
2018-Aug-13 13:58N 30°39' E 122°01'0 0.0
2018-Aug-13 13:07N 30°39' E 122°01'0 0.0
2018-Aug-13 12:58N 30°39' E 122°01'0 0.0
2018-Aug-13 12:25N 30°39' E 122°01'0 0.0
2018-Aug-13 11:55N 30°39' E 122°01'0 0.0
2018-Aug-13 11:28N 30°39' E 122°01'0 0.0
2018-Aug-13 10:58N 30°39' E 122°01'0 0.0
2018-Aug-13 10:25N 30°39' E 122°01'0 0.0
2018-Aug-13 09:55N 30°39' E 122°01'0 0.0
2018-Aug-13 09:28N 30°39' E 122°01'0 0.0
2018-Aug-13 08:43N 30°39' E 122°01'0 0.0
2018-Aug-13 08:30N 30°39' E 122°01'0 0.4
2018-Aug-13 07:57N 30°39' E 122°01'2 4.1
2018-Aug-13 07:30N 30°38' E 122°03'813.6
2018-Aug-13 06:56N 30°34' E 122°11'612.6
2018-Aug-13 06:28N 30°33' E 122°17'  
Track history (hours):
 
Tides and Currents Weather Stations Pressure Air Temp Water Temp Dewpoint Dewpoint Depression Visibility Wind Speed Wind Dir Waves Ship Positions

Jebel Ali

Last reported at 2018-Aug-16 22:06 UTC. Time now 2018-Aug-19 22:41 UTC.
Position N 23°21' E 117°32'.

Length 366 m; draft 12.9 m.

Type: Ship (hazmat cat A). MMSI: 229007000.

Date/timePositionNaut miles runAvg speedWind from/ knotsBaromVisibWave heightAir tempDewpointWater temp
2018-Aug-16 22:06N 23°21' E 117°32'112.4
2018-Aug-16 22:00N 23°22' E 117°33'612.4
2018-Aug-16 21:30N 23°26' E 117°38'612.4
2018-Aug-16 21:00N 23°30' E 117°43'611.9
2018-Aug-16 20:30N 23°34' E 117°48'611.8
2018-Aug-16 19:58N 23°38' E 117°53'612.0
2018-Aug-16 19:30N 23°41' E 117°58'611.4
2018-Aug-16 18:58N 23°44' E 118°04'611.6
2018-Aug-16 18:25N 23°48' E 118°09'511.2
2018-Aug-16 18:00N 23°50' E 118°14'611.3
2018-Aug-16 17:28N 23°53' E 118°20'511.1
2018-Aug-16 16:59N 23°56' E 118°24'910.9
2018-Aug-16 16:10N 24°02' E 118°32'610.7
2018-Aug-16 15:37N 24°06' E 118°37'110.3
2018-Aug-16 15:30N 24°06' E 118°38'610.6
2018-Aug-16 14:59N 24°10' E 118°43'4110.8
2018-Aug-16 11:13N 24°35' E 119°18'311.0
2018-Aug-16 10:56N 24°37' E 119°21'710.9
2018-Aug-16 10:18N 24°41' E 119°27'  
2018-Aug-13 23:14N 30°34' E 122°10'715.0
2018-Aug-13 22:45N 30°37' E 122°03'2 9.3
2018-Aug-13 22:30N 30°39' E 122°01'0 0.6
2018-Aug-13 21:55N 30°39' E 122°01'0 0.0
2018-Aug-13 21:28N 30°39' E 122°01'0 0.0
2018-Aug-13 20:58N 30°39' E 122°01'0 0.0
2018-Aug-13 20:28N 30°39' E 122°01'0 0.0
2018-Aug-13 19:58N 30°39' E 122°01'0 0.0
2018-Aug-13 19:28N 30°39' E 122°01'0 0.0
2018-Aug-13 18:52N 30°39' E 122°01'0 0.0
2018-Aug-13 18:28N 30°39' E 122°01'0 0.0
2018-Aug-13 17:58N 30°39' E 122°01'0 0.0
2018-Aug-13 17:28N 30°39' E 122°01'0 0.0
2018-Aug-13 16:58N 30°39' E 122°01'0 0.0
2018-Aug-13 16:28N 30°39' E 122°01'0 0.0
2018-Aug-13 15:58N 30°39' E 122°01'0 0.0
2018-Aug-13 15:25N 30°39' E 122°01'0 0.0
2018-Aug-13 14:55N 30°39' E 122°01'0 0.0
2018-Aug-13 14:25N 30°39' E 122°01'0 0.0
2018-Aug-13 13:58N 30°39' E 122°01'0 0.0
2018-Aug-13 13:07N 30°39' E 122°01'0 0.0
2018-Aug-13 12:58N 30°39' E 122°01'0 0.0
2018-Aug-13 12:25N 30°39' E 122°01'0 0.0
2018-Aug-13 11:55N 30°39' E 122°01'0 0.0
2018-Aug-13 11:28N 30°39' E 122°01'0 0.0
2018-Aug-13 10:58N 30°39' E 122°01'0 0.0
2018-Aug-13 10:25N 30°39' E 122°01'0 0.0
2018-Aug-13 09:55N 30°39' E 122°01'0 0.0
2018-Aug-13 09:28N 30°39' E 122°01'0 0.0
2018-Aug-13 08:43N 30°39' E 122°01'0 0.0
2018-Aug-13 08:30N 30°39' E 122°01'0 0.4
2018-Aug-13 07:57N 30°39' E 122°01'2 4.1
2018-Aug-13 07:30N 30°38' E 122°03'813.6
2018-Aug-13 06:56N 30°34' E 122°11'612.6
2018-Aug-13 06:28N 30°33' E 122°17'  

Dump ship's entire track history